Time;durP1;ratioP1;P1;durP2;ratioP2;P2;SDS_P1;SDS_P2;PMS_P1;PMS_P2;Temp;Humidity;BMP_temperature;BMP_pressure;BME280_temperature;BME280_humidity;BME280_pressure;Samples;Min_cycle;Max_cycle;Signal;HPM_P1;HPM_P2
2023/01/07 00:03:39;;;;;;;2.33;1.10;;;;;;;;;;10553625;28;20676;-74
2023/01/07 00:08:44;;;;;;;4.03;2.20;;;;;;;;;;10548324;28;20322;-75
2023/01/07 00:13:48;;;;;;;4.43;1.90;;;;;;;;;;10560960;28;20481;-73
2023/01/07 00:18:51;;;;;;;4.18;2.10;;;;;;;;;;10555297;28;20040;-74
2023/01/07 00:23:54;;;;;;;3.90;2.03;;;;;;;;;;10544728;28;20036;-75
2023/01/07 00:28:58;;;;;;;3.65;2.10;;;;;;;;;;10544369;28;20059;-73
2023/01/07 00:34:09;;;;;;;4.97;2.10;;;;;;;;;;10552595;28;20034;-76
2023/01/07 00:39:12;;;;;;;6.50;2.70;;;;;;;;;;10531665;28;20052;-75
2023/01/07 00:44:17;;;;;;;4.25;2.38;;;;;;;;;;10523770;28;21848;-75
2023/01/07 00:49:19;;;;;;;5.05;2.40;;;;;;;;;;10526234;28;20056;-75
2023/01/07 00:54:22;;;;;;;1.75;1.25;;;;;;;;;;10519347;28;20036;-74
2023/01/07 00:59:26;;;;;;;6.18;2.47;;;;;;;;;;10526296;28;20089;-75
2023/01/07 01:04:28;;;;;;;2.47;1.38;;;;;;;;;;10522043;28;20082;-75
2023/01/07 01:09:31;;;;;;;4.65;2.45;;;;;;;;;;10529056;28;20047;-76
2023/01/07 01:14:35;;;;;;;4.13;2.13;;;;;;;;;;10521777;28;20031;-74
2023/01/07 01:19:38;;;;;;;4.10;2.33;;;;;;;;;;10528720;28;20048;-75
2023/01/07 01:24:40;;;;;;;5.05;2.00;;;;;;;;;;10530732;28;20061;-75
2023/01/07 01:29:44;;;;;;;5.60;2.10;;;;;;;;;;10533043;28;20058;-75
2023/01/07 01:34:46;;;;;;;4.32;2.03;;;;;;;;;;10528237;28;20032;-74
2023/01/07 01:39:49;;;;;;;5.63;2.00;;;;;;;;;;10524886;28;20382;-74
2023/01/07 01:44:54;;;;;;;3.50;1.73;;;;;;;;;;10527390;28;20485;-74
2023/01/07 01:49:58;;;;;;;3.50;2.03;;;;;;;;;;10524958;28;20419;-76
2023/01/07 01:55:02;;;;;;;2.90;1.90;;;;;;;;;;10520740;28;20051;-75
2023/01/07 02:00:07;;;;;;;5.97;2.30;;;;;;;;;;10522078;28;20062;-76
2023/01/07 02:05:10;;;;;;;3.53;2.08;;;;;;;;;;10517904;28;20195;-74
2023/01/07 02:10:14;;;;;;;4.45;2.17;;;;;;;;;;10519977;28;20065;-73
2023/01/07 02:15:16;;;;;;;;;;;;;;;;;;10527875;28;20032;-74
2023/01/07 02:20:28;;;;;;;5.20;2.10;;;;;;;;;;10515720;28;20005;-75
2023/01/07 02:25:42;;;;;;;4.95;2.67;;;;;;;;;;10547035;28;20074;-74
2023/01/07 02:31:13;;;;;;;3.42;1.90;;;;;;;;;;10531475;28;20040;-73
2023/01/07 02:36:33;;;;;;;3.75;2.08;;;;;;;;;;10528450;28;20035;-77
2023/01/07 02:41:43;;;;;;;6.20;2.17;;;;;;;;;;10523505;28;20040;-75
2023/01/07 02:46:47;;;;;;;5.35;2.40;;;;;;;;;;10520168;28;20531;-77
2023/01/07 02:51:50;;;;;;;3.90;2.03;;;;;;;;;;10522015;28;20848;-77
2023/01/07 02:57:05;;;;;;;6.30;2.28;;;;;;;;;;10525705;28;20048;-76
2023/01/07 03:02:24;;;;;;;5.82;2.00;;;;;;;;;;10518889;28;20059;-77
2023/01/07 03:07:35;;;;;;;3.30;2.10;;;;;;;;;;10515755;28;20405;-76
2023/01/07 03:12:43;;;;;;;5.05;2.08;;;;;;;;;;10502630;28;20040;-76
2023/01/07 03:17:48;;;;;;;3.67;1.52;;;;;;;;;;10501168;28;20164;-75
2023/01/07 03:22:52;;;;;;;2.38;1.48;;;;;;;;;;10501148;28;20535;-75
2023/01/07 03:27:57;;;;;;;4.40;1.92;;;;;;;;;;10499666;28;20422;-75
2023/01/07 03:33:02;;;;;;;1.95;1.17;;;;;;;;;;10498825;28;20063;-75
2023/01/07 03:38:05;;;;;;;2.60;1.42;;;;;;;;;;10501074;28;21380;-75
2023/01/07 03:43:13;;;;;;;7.50;2.40;;;;;;;;;;10500008;28;20417;-76
2023/01/07 03:48:15;;;;;;;1.70;1.02;;;;;;;;;;10506705;28;20086;-75
2023/01/07 03:53:18;;;;;;;2.83;1.77;;;;;;;;;;10501080;28;20478;-75
2023/01/07 03:58:22;;;;;;;3.03;1.77;;;;;;;;;;10501996;28;20606;-77
2023/01/07 04:03:24;;;;;;;2.00;1.08;;;;;;;;;;10501167;28;20047;-77
2023/01/07 04:08:27;;;;;;;3.58;1.95;;;;;;;;;;10503961;28;20091;-75
2023/01/07 04:13:31;;;;;;;2.80;1.88;;;;;;;;;;10513620;28;20064;-75
2023/01/07 04:18:33;;;;;;;2.70;1.75;;;;;;;;;;10510417;28;20047;-74
2023/01/07 04:23:36;;;;;;;2.40;1.65;;;;;;;;;;10511600;28;20508;-75
2023/01/07 04:28:40;;;;;;;2.78;1.52;;;;;;;;;;10506918;28;20520;-75
2023/01/07 04:33:43;;;;;;;2.40;1.35;;;;;;;;;;10507534;28;20119;-74
2023/01/07 04:38:46;;;;;;;2.55;1.20;;;;;;;;;;10507193;28;20044;-75
2023/01/07 04:43:50;;;;;;;2.80;1.70;;;;;;;;;;10507634;28;20039;-75
2023/01/07 04:48:53;;;;;;;3.83;1.95;;;;;;;;;;10505612;28;20439;-75
2023/01/07 04:53:56;;;;;;;1.75;1.08;;;;;;;;;;10505838;28;20443;-76
2023/01/07 04:59:00;;;;;;;2.50;1.55;;;;;;;;;;10506828;28;20493;-75
2023/01/07 05:04:02;;;;;;;2.30;1.02;;;;;;;;;;10504992;28;20039;-74
2023/01/07 05:09:05;;;;;;;2.33;0.75;;;;;;;;;;10507709;28;20265;-76
2023/01/07 05:14:12;;;;;;;1.25;0.55;;;;;;;;;;10512482;28;20055;-75
2023/01/07 05:19:15;;;;;;;2.80;1.58;;;;;;;;;;10506244;28;20438;-75
2023/01/07 05:24:18;;;;;;;2.22;0.98;;;;;;;;;;10503983;28;20085;-75
2023/01/07 05:29:22;;;;;;;1.95;1.08;;;;;;;;;;10505281;28;20051;-75
2023/01/07 05:34:25;;;;;;;2.42;1.55;;;;;;;;;;10506639;28;20050;-75
2023/01/07 05:39:27;;;;;;;2.08;1.30;;;;;;;;;;10505335;28;20602;-75
2023/01/07 05:44:31;;;;;;;2.40;1.38;;;;;;;;;;10505104;28;20040;-75
2023/01/07 05:49:34;;;;;;;2.33;1.45;;;;;;;;;;10506718;28;20181;-75
2023/01/07 05:54:37;;;;;;;2.67;0.88;;;;;;;;;;10504183;28;20052;-75
2023/01/07 05:59:45;;;;;;;3.38;1.52;;;;;;;;;;10504097;28;20059;-75
2023/01/07 06:04:47;;;;;;;1.15;0.77;;;;;;;;;;10504171;28;20064;-74
2023/01/07 06:09:50;;;;;;;2.00;1.38;;;;;;;;;;10511017;28;20073;-75
2023/01/07 06:14:54;;;;;;;2.70;1.60;;;;;;;;;;10506271;28;20089;-76
2023/01/07 06:19:56;;;;;;;3.60;0.85;;;;;;;;;;10503250;28;20619;-75
2023/01/07 06:24:59;;;;;;;3.03;1.13;;;;;;;;;;10501969;28;20055;-74
2023/01/07 06:30:04;;;;;;;4.43;2.03;;;;;;;;;;10506047;28;20117;-75
2023/01/07 06:35:07;;;;;;;3.53;1.83;;;;;;;;;;10502900;28;20047;-74
2023/01/07 06:40:10;;;;;;;3.23;1.77;;;;;;;;;;10503948;28;20123;-74
2023/01/07 06:45:14;;;;;;;4.17;1.90;;;;;;;;;;10498658;28;20044;-74
2023/01/07 06:50:17;;;;;;;4.13;1.83;;;;;;;;;;10500946;28;20147;-75
2023/01/07 06:55:20;;;;;;;3.17;1.75;;;;;;;;;;10504094;28;20661;-73
2023/01/07 07:00:24;;;;;;;3.83;1.98;;;;;;;;;;10503084;28;20671;-75
2023/01/07 07:05:28;;;;;;;4.53;2.17;;;;;;;;;;10504089;28;20048;-75
2023/01/07 07:10:30;;;;;;;3.78;2.03;;;;;;;;;;10503849;28;20113;-74
2023/01/07 07:15:34;;;;;;;2.92;1.35;;;;;;;;;;10502772;28;20462;-74
2023/01/07 07:20:37;;;;;;;5.03;1.58;;;;;;;;;;10502170;28;20044;-73
2023/01/07 07:25:39;;;;;;;4.70;2.35;;;;;;;;;;10502759;28;20791;-74
2023/01/07 07:30:43;;;;;;;2.25;1.40;;;;;;;;;;10501079;28;20051;-77
2023/01/07 07:35:53;;;;;;;2.75;2.03;;;;;;;;;;10504014;28;20050;-75
2023/01/07 07:40:55;;;;;;;7.33;2.77;;;;;;;;;;10502237;28;20044;-74
2023/01/07 07:45:59;;;;;;;4.70;2.20;;;;;;;;;;10505817;28;20040;-74
2023/01/07 07:51:02;;;;;;;5.57;2.28;;;;;;;;;;10513796;28;20113;-75
2023/01/07 07:56:06;;;;;;;6.78;2.67;;;;;;;;;;10507077;28;20044;-74
2023/01/07 08:01:12;;;;;;;3.50;1.90;;;;;;;;;;10510482;28;20478;-74
2023/01/07 08:06:14;;;;;;;4.60;2.58;;;;;;;;;;10508935;28;20040;-74
2023/01/07 08:11:17;;;;;;;4.57;2.25;;;;;;;;;;10517284;28;20052;-74
2023/01/07 08:16:21;;;;;;;3.67;1.88;;;;;;;;;;10511963;28;20143;-75
2023/01/07 08:21:24;;;;;;;4.13;1.55;;;;;;;;;;10520951;28;20050;-74
2023/01/07 08:26:26;;;;;;;4.55;2.22;;;;;;;;;;10504756;28;20040;-75
2023/01/07 08:31:30;;;;;;;4.03;2.35;;;;;;;;;;10492237;28;20131;-76
2023/01/07 08:36:33;;;;;;;2.25;1.52;;;;;;;;;;10509007;28;20174;-75
2023/01/07 08:41:37;;;;;;;6.80;2.60;;;;;;;;;;10513159;28;20082;-75
2023/01/07 08:46:40;;;;;;;;;;;;;;;;;;10514341;28;20068;-75
2023/01/07 08:51:44;;;;;;;3.20;2.20;;;;;;;;;;10511731;28;19982;-75
2023/01/07 08:56:47;;;;;;;4.15;2.55;;;;;;;;;;10508793;28;20497;-75
2023/01/07 09:01:49;;;;;;;2.88;2.55;;;;;;;;;;10512372;28;20131;-75
2023/01/07 09:06:53;;;;;;;3.20;2.70;;;;;;;;;;10514571;28;20501;-76
2023/01/07 09:11:56;;;;;;;3.45;2.55;;;;;;;;;;10514574;28;20371;-77
2023/01/07 09:16:59;;;;;;;5.83;2.50;;;;;;;;;;10517121;28;20516;-75
2023/01/07 09:22:03;;;;;;;3.20;1.92;;;;;;;;;;10510511;28;20039;-76
2023/01/07 09:27:05;;;;;;;3.00;2.40;;;;;;;;;;10512938;28;20043;-76
2023/01/07 09:32:08;;;;;;;2.20;2.00;;;;;;;;;;10512234;28;20094;-76
2023/01/07 09:37:12;;;;;;;3.13;2.53;;;;;;;;;;10512628;28;20068;-76
2023/01/07 09:42:21;;;;;;;2.95;2.50;;;;;;;;;;10510361;28;21948;-76
2023/01/07 09:47:26;;;;;;;3.50;2.47;;;;;;;;;;10509421;28;20232;-75
2023/01/07 09:52:33;;;;;;;3.30;2.60;;;;;;;;;;10525277;28;20036;-76
2023/01/07 09:57:35;;;;;;;4.38;2.40;;;;;;;;;;10529411;28;20063;-77
2023/01/07 10:02:43;;;;;;;2.83;2.55;;;;;;;;;;10515756;28;20450;-76
2023/01/07 10:07:50;;;;;;;2.90;2.13;;;;;;;;;;10516284;28;20048;-75
2023/01/07 10:12:56;;;;;;;2.75;1.90;;;;;;;;;;10518439;28;20108;-75
2023/01/07 10:18:05;;;;;;;4.25;2.40;;;;;;;;;;10521242;28;20044;-74
2023/01/07 10:23:14;;;;;;;3.30;2.50;;;;;;;;;;10504990;28;20052;-76
2023/01/07 10:28:18;;;;;;;2.92;2.65;;;;;;;;;;10523400;28;20040;-76
2023/01/07 10:33:24;;;;;;;2.90;2.58;;;;;;;;;;10518825;28;20052;-75
2023/01/07 10:38:30;;;;;;;4.13;2.75;;;;;;;;;;10512692;28;20047;-75
2023/01/07 10:43:38;;;;;;;5.15;2.90;;;;;;;;;;10513016;28;20113;-75
2023/01/07 10:48:48;;;;;;;3.17;2.75;;;;;;;;;;10513579;28;20062;-75
2023/01/07 10:53:58;;;;;;;2.85;2.50;;;;;;;;;;10525215;28;20062;-75
2023/01/07 10:59:00;;;;;;;4.10;2.80;;;;;;;;;;10524125;28;20450;-75
2023/01/07 11:04:03;;;;;;;;;;;;;;;;;;10523592;28;20089;-75
2023/01/07 11:09:08;;;;;;;3.27;2.30;;;;;;;;;;10519446;28;19972;-74
2023/01/07 11:14:12;;;;;;;5.20;2.70;;;;;;;;;;10507213;28;20036;-75
2023/01/07 11:19:15;;;;;;;2.50;2.30;;;;;;;;;;10517691;28;20124;-74
2023/01/07 11:24:33;;;;;;;3.08;2.38;;;;;;;;;;10514549;28;20045;-74
2023/01/07 11:29:38;;;;;;;4.90;1.98;;;;;;;;;;10515385;28;20063;-75
2023/01/07 11:34:48;;;;;;;3.03;2.47;;;;;;;;;;10524100;28;20049;-75
2023/01/07 11:39:58;;;;;;;2.40;2.20;;;;;;;;;;10519295;28;20080;-77
2023/01/07 11:45:07;;;;;;;3.70;2.40;;;;;;;;;;10512168;28;20067;-75
2023/01/07 11:50:20;;;;;;;2.35;2.15;;;;;;;;;;10525782;28;20545;-75
2023/01/07 11:55:24;;;;;;;1.97;1.87;;;;;;;;;;10522256;28;20032;-75
2023/01/07 12:00:28;;;;;;;2.95;2.28;;;;;;;;;;10523291;28;20048;-74
2023/01/07 12:05:30;;;;;;;2.40;2.20;;;;;;;;;;10526375;28;20575;-77
2023/01/07 12:10:35;;;;;;;2.92;2.50;;;;;;;;;;10528979;28;20091;-76
2023/01/07 12:15:45;;;;;;;2.55;2.20;;;;;;;;;;10516056;28;20055;-75
2023/01/07 12:20:54;;;;;;;2.65;2.30;;;;;;;;;;10527836;28;20040;-76
2023/01/07 12:26:02;;;;;;;2.15;2.00;;;;;;;;;;10521590;28;20044;-75
2023/01/07 12:31:13;;;;;;;2.05;1.85;;;;;;;;;;10524088;28;20362;-75
2023/01/07 12:36:19;;;;;;;2.20;2.00;;;;;;;;;;10524607;28;20041;-75
2023/01/07 12:41:25;;;;;;;2.45;2.15;;;;;;;;;;10519138;28;20040;-76
2023/01/07 12:46:31;;;;;;;3.03;2.00;;;;;;;;;;10526981;28;20102;-75
2023/01/07 12:51:37;;;;;;;2.58;2.10;;;;;;;;;;10522828;28;20136;-75
2023/01/07 12:56:45;;;;;;;2.67;2.00;;;;;;;;;;10527477;28;20191;-75
2023/01/07 13:01:50;;;;;;;2.72;2.13;;;;;;;;;;10524096;28;20045;-75
2023/01/07 13:06:55;;;;;;;2.60;2.00;;;;;;;;;;10526602;28;20044;-76
2023/01/07 13:17:42;;;;;;;2.78;2.17;;;;;;;;;;10527719;28;20046;-76
2023/01/07 13:22:46;;;;;;;3.53;2.38;;;;;;;;;;10520949;28;20410;-75
2023/01/07 13:27:59;;;;;;;2.45;2.10;;;;;;;;;;10523007;28;20127;-75
2023/01/07 13:33:05;;;;;;;2.83;2.13;;;;;;;;;;10518702;28;20040;-75
2023/01/07 13:38:13;;;;;;;3.67;2.40;;;;;;;;;;10537872;28;20632;-76
2023/01/07 13:43:23;;;;;;;3.00;2.40;;;;;;;;;;10524186;28;20040;-76
2023/01/07 13:48:27;;;;;;;2.95;1.70;;;;;;;;;;10526031;28;20126;-76
2023/01/07 13:53:31;;;;;;;3.58;1.58;;;;;;;;;;10520867;28;20051;-75
2023/01/07 13:58:41;;;;;;;2.38;1.67;;;;;;;;;;10521048;28;20093;-75
2023/01/07 14:03:45;;;;;;;4.18;1.70;;;;;;;;;;10525240;28;20094;-76
2023/01/07 14:08:50;;;;;;;4.20;1.60;;;;;;;;;;10528003;28;20485;-75
2023/01/07 14:13:59;;;;;;;3.30;1.88;;;;;;;;;;10521911;28;20139;-75
2023/01/07 14:19:07;;;;;;;2.50;1.45;;;;;;;;;;10518726;28;20048;-75
2023/01/07 14:24:30;;;;;;;4.07;1.90;;;;;;;;;;10526423;28;20043;-75
2023/01/07 14:29:45;;;;;;;2.22;1.42;;;;;;;;;;10498150;28;20100;-75
2023/01/07 14:34:53;;;;;;;2.72;1.70;;;;;;;;;;10528527;28;20374;-74
2023/01/07 14:39:56;;;;;;;3.60;1.48;;;;;;;;;;10521573;28;20393;-74
2023/01/07 14:45:01;;;;;;;4.10;1.92;;;;;;;;;;10527706;28;20203;-76
2023/01/07 14:50:17;;;;;;;3.13;1.70;;;;;;;;;;10520100;28;20043;-75
2023/01/07 14:55:34;;;;;;;5.85;1.80;;;;;;;;;;10515115;28;20374;-75
2023/01/07 15:00:44;;;;;;;4.95;2.25;;;;;;;;;;10522330;28;20369;-75
2023/01/07 15:06:05;;;;;;;3.92;2.20;;;;;;;;;;10526642;28;20066;-75
2023/01/07 15:16:33;;;;;;;4.73;1.83;;;;;;;;;;10491331;28;20061;-74
2023/01/07 15:21:41;;;;;;;4.57;2.13;;;;;;;;;;10503239;28;20801;-76
2023/01/07 15:26:47;;;;;;;3.92;1.60;;;;;;;;;;10514533;28;20044;-76
2023/01/07 15:31:55;;;;;;;3.60;2.10;;;;;;;;;;10509720;28;20052;-75
2023/01/07 15:36:58;;;;;;;3.85;1.88;;;;;;;;;;10519363;28;20460;-75
2023/01/07 15:42:02;;;;;;;4.05;2.25;;;;;;;;;;10512578;28;20469;-75
2023/01/07 15:47:26;;;;;;;6.65;3.25;;;;;;;;;;10508826;28;20409;-75
2023/01/07 15:52:29;;;;;;;4.43;2.25;;;;;;;;;;10504504;28;20475;-75
2023/01/07 15:57:34;;;;;;;4.47;2.05;;;;;;;;;;10508746;28;20143;-75
2023/01/07 16:02:39;;;;;;;8.50;2.70;;;;;;;;;;10507367;28;20493;-75
2023/01/07 16:07:43;;;;;;;4.22;2.25;;;;;;;;;;10509081;28;20063;-75
2023/01/07 16:12:48;;;;;;;7.95;2.92;;;;;;;;;;10516740;28;20077;-75
2023/01/07 16:17:53;;;;;;;8.90;3.38;;;;;;;;;;10515195;28;20051;-75
2023/01/07 16:23:01;;;;;;;5.40;2.20;;;;;;;;;;10515412;28;20554;-75
2023/01/07 16:28:04;;;;;;;8.05;2.50;;;;;;;;;;10515412;28;20532;-76
2023/01/07 16:33:09;;;;;;;5.22;2.42;;;;;;;;;;10515974;28;20482;-76
2023/01/07 16:38:13;;;;;;;6.57;2.70;;;;;;;;;;10517222;28;20036;-73
2023/01/07 16:43:33;;;;;;;4.15;1.70;;;;;;;;;;10517627;28;20777;-75
2023/01/07 16:48:37;;;;;;;11.30;3.88;;;;;;;;;;10516755;28;20188;-75
2023/01/07 16:53:40;;;;;;;9.93;4.10;;;;;;;;;;10515483;28;20040;-75
2023/01/07 16:58:47;;;;;;;26.02;9.23;;;;;;;;;;10514442;28;20047;-76
2023/01/07 17:03:53;;;;;;;28.48;9.52;;;;;;;;;;10514351;28;20082;-76
2023/01/07 17:08:56;;;;;;;8.25;3.22;;;;;;;;;;10514851;28;20522;-76
2023/01/07 17:13:59;;;;;;;7.80;3.23;;;;;;;;;;10513276;28;20473;-75
2023/01/07 17:19:20;;;;;;;11.30;4.47;;;;;;;;;;10516593;28;20048;-75
2023/01/07 17:24:37;;;;;;;23.85;9.55;;;;;;;;;;10512657;28;20063;-77
2023/01/07 17:29:41;;;;;;;9.90;3.63;;;;;;;;;;10513682;28;20681;-76
2023/01/07 17:34:44;;;;;;;12.43;4.18;;;;;;;;;;10513370;28;20044;-75
2023/01/07 17:39:46;;;;;;;16.42;5.20;;;;;;;;;;10516687;28;20044;-74
2023/01/07 17:44:53;;;;;;;70.25;19.05;;;;;;;;;;10512320;28;20032;-75
2023/01/07 17:49:56;;;;;;;74.85;19.27;;;;;;;;;;10512527;28;20225;-75
2023/01/07 17:54:59;;;;;;;41.95;11.50;;;;;;;;;;10507721;28;20043;-76
2023/01/07 18:00:04;;;;;;;15.52;5.68;;;;;;;;;;10513309;28;20035;-75
2023/01/07 18:05:08;;;;;;;16.38;5.90;;;;;;;;;;10511286;28;20206;-76
2023/01/07 18:10:12;;;;;;;13.90;4.40;;;;;;;;;;10511658;28;20036;-75
2023/01/07 18:15:18;;;;;;;17.98;5.70;;;;;;;;;;10511130;28;20051;-75
2023/01/07 18:20:22;;;;;;;13.50;5.60;;;;;;;;;;10510678;28;20032;-75
2023/01/07 18:25:24;;;;;;;11.70;5.60;;;;;;;;;;10510888;28;20040;-75
2023/01/07 18:30:28;;;;;;;14.95;6.57;;;;;;;;;;10509280;28;20301;-75
2023/01/07 18:35:31;;;;;;;13.90;5.38;;;;;;;;;;10511145;28;20047;-75
2023/01/07 18:40:33;;;;;;;16.95;5.60;;;;;;;;;;10512262;28;20039;-75
2023/01/07 18:45:40;;;;;;;12.32;5.28;;;;;;;;;;10508700;28;20074;-74
2023/01/07 18:50:43;;;;;;;21.95;7.05;;;;;;;;;;10509126;28;20036;-76
2023/01/07 18:55:46;;;;;;;13.93;5.97;;;;;;;;;;10512299;28;20575;-75
2023/01/07 19:00:49;;;;;;;11.68;4.85;;;;;;;;;;10510943;28;20032;-75
2023/01/07 19:05:52;;;;;;;;;;;;;;;;;;10502560;28;20070;-75
2023/01/07 19:10:55;;;;;;;12.02;4.22;;;;;;;;;;10509128;28;20348;-75
2023/01/07 19:16:00;;;;;;;11.27;4.13;;;;;;;;;;10509626;28;20183;-75
2023/01/07 19:21:03;;;;;;;5.82;2.25;;;;;;;;;;10508459;28;20044;-76
2023/01/07 19:26:06;;;;;;;6.75;2.38;;;;;;;;;;10517322;28;20108;-77
2023/01/07 19:31:09;;;;;;;;;;;;;;;;;;10520460;28;20044;-77
2023/01/07 19:36:14;;;;;;;13.07;4.88;;;;;;;;;;10514033;28;19943;-77
2023/01/07 19:41:24;;;;;;;14.35;5.68;;;;;;;;;;10514331;28;20048;-76
2023/01/07 19:46:27;;;;;;;11.15;4.65;;;;;;;;;;10518315;28;20534;-77
2023/01/07 19:51:31;;;;;;;15.27;4.93;;;;;;;;;;10519468;28;21763;-74
2023/01/07 19:56:35;;;;;;;7.13;2.97;;;;;;;;;;10517620;28;20658;-75
2023/01/07 20:01:38;;;;;;;13.43;4.82;;;;;;;;;;10516738;28;20097;-75
2023/01/07 20:06:42;;;;;;;12.88;5.32;;;;;;;;;;10516387;28;20056;-76
2023/01/07 20:11:45;;;;;;;4.70;2.88;;;;;;;;;;10518951;28;20032;-76
2023/01/07 20:16:48;;;;;;;9.07;4.55;;;;;;;;;;10516761;28;20040;-76
2023/01/07 20:21:52;;;;;;;13.35;4.53;;;;;;;;;;10512983;28;20032;-76
2023/01/07 20:26:54;;;;;;;7.40;2.55;;;;;;;;;;10516352;28;20062;-79
2023/01/07 20:31:57;;;;;;;18.27;6.97;;;;;;;;;;10515847;28;20036;-78
2023/01/07 20:43:04;;;;;;;10.75;4.47;;;;;;;;;;10509527;28;20076;-75
2023/01/07 20:48:07;;;;;;;12.60;4.60;;;;;;;;;;10513492;28;20452;-76
2023/01/07 20:53:10;;;;;;;11.45;4.22;;;;;;;;;;10513395;28;20097;-77
2023/01/07 20:58:14;;;;;;;9.02;3.78;;;;;;;;;;10514808;28;20500;-76
2023/01/07 21:03:17;;;;;;;3.83;2.15;;;;;;;;;;10513110;28;20118;-76
2023/01/07 21:08:19;;;;;;;11.25;4.13;;;;;;;;;;10514124;28;20060;-75
2023/01/07 21:13:23;;;;;;;10.30;4.30;;;;;;;;;;10513009;28;20036;-75
2023/01/07 21:18:26;;;;;;;4.90;1.65;;;;;;;;;;10517810;28;20054;-77
2023/01/07 21:23:28;;;;;;;9.07;1.92;;;;;;;;;;10512229;28;20101;-77
2023/01/07 21:28:33;;;;;;;3.92;2.22;;;;;;;;;;10513350;28;20264;-75
2023/01/07 21:33:36;;;;;;;4.80;2.42;;;;;;;;;;10512514;28;20036;-76
2023/01/07 21:38:39;;;;;;;31.33;6.05;;;;;;;;;;10512648;28;22039;-75
2023/01/07 21:43:43;;;;;;;25.48;7.03;;;;;;;;;;10514206;28;20123;-76
2023/01/07 21:48:46;;;;;;;40.70;8.13;;;;;;;;;;10513015;28;20044;-76
2023/01/07 21:53:50;;;;;;;22.83;5.53;;;;;;;;;;10511919;28;20039;-76
2023/01/07 21:58:54;;;;;;;1.67;0.80;;;;;;;;;;10512440;28;20036;-75
2023/01/07 22:03:58;;;;;;;9.45;2.58;;;;;;;;;;10511080;28;20501;-77
2023/01/07 22:09:01;;;;;;;21.90;5.63;;;;;;;;;;10511144;28;20450;-75
2023/01/07 22:14:05;;;;;;;27.57;8.83;;;;;;;;;;10512050;28;20048;-75
2023/01/07 22:19:09;;;;;;;19.55;6.25;;;;;;;;;;10511961;28;20044;-75
2023/01/07 22:24:13;;;;;;;45.50;11.33;;;;;;;;;;10510948;28;20047;-75
2023/01/07 22:29:17;;;;;;;28.38;7.82;;;;;;;;;;10511721;28;20358;-76
2023/01/07 22:34:19;;;;;;;14.32;5.68;;;;;;;;;;10510662;28;20796;-75
2023/01/07 22:39:24;;;;;;;22.83;5.75;;;;;;;;;;10512651;28;20093;-74
2023/01/07 22:44:30;;;;;;;10.15;3.53;;;;;;;;;;10511389;28;20093;-76
2023/01/07 22:49:33;;;;;;;9.77;3.28;;;;;;;;;;10510514;28;20349;-76
2023/01/07 22:54:36;;;;;;;11.18;3.92;;;;;;;;;;10511425;28;20036;-76
2023/01/07 22:59:40;;;;;;;7.15;3.35;;;;;;;;;;10512149;28;20043;-77
2023/01/07 23:04:43;;;;;;;7.97;3.38;;;;;;;;;;10508622;28;20139;-74
2023/01/07 23:09:45;;;;;;;18.98;5.55;;;;;;;;;;10511271;28;20042;-75
2023/01/07 23:14:49;;;;;;;11.70;5.20;;;;;;;;;;10510145;28;20565;-75
2023/01/07 23:19:52;;;;;;;9.68;3.42;;;;;;;;;;10510108;28;20094;-74
2023/01/07 23:24:54;;;;;;;7.03;2.83;;;;;;;;;;10509269;28;20545;-74
2023/01/07 23:29:59;;;;;;;10.32;3.25;;;;;;;;;;10509299;28;20050;-74
2023/01/07 23:35:02;;;;;;;9.25;3.45;;;;;;;;;;10509985;28;20389;-75
2023/01/07 23:40:06;;;;;;;8.90;3.03;;;;;;;;;;10510609;28;20036;-74
2023/01/07 23:45:10;;;;;;;11.93;3.80;;;;;;;;;;10503790;28;20555;-75
2023/01/07 23:50:12;;;;;;;;;;;;;;;;;;10509952;28;20043;-76
2023/01/07 23:55:15;;;;;;;11.70;4.82;;;;;;;;;;10508163;28;19928;-75
